Time,TemperatureF,DewpointF,PressureIn,WindDirection,WindDirectionDegrees,WindSpeedMPH,WindSpeedGustMPH,Humidity,HourlyPrecipIn,Conditions,Clouds,dailyrainin,SoftwareType,DateUTC
2013-08-13 00:13:00,70.3,69.0,29.88,WSW,252,0.0,0.0,96,0.02,,,0.02,weatherlink.com 1.10,2013-08-13 04:13:00,
2013-08-13 00:28:00,70.4,70.0,29.87,WSW,252,0.0,0.0,97,0.03,,,0.03,weatherlink.com 1.10,2013-08-13 04:28:00,
2013-08-13 00:43:00,70.1,69.0,29.86,WSW,252,0.0,0.0,96,0.04,,,0.04,weatherlink.com 1.10,2013-08-13 04:43:00,
2013-08-13 00:58:00,70.1,69.0,29.86,WSW,253,0.0,0.0,97,0.10,,,0.10,weatherlink.com 1.10,2013-08-13 04:58:00,
2013-08-13 01:13:00,70.1,69.0,29.84,ESE,108,2.0,3.0,97,0.38,,,0.40,weatherlink.com 1.10,2013-08-13 05:13:00,
2013-08-13 01:28:00,70.0,69.0,29.84,SSE,162,3.0,4.0,97,0.47,,,0.50,weatherlink.com 1.10,2013-08-13 05:28:00,
2013-08-13 01:43:00,68.9,68.0,29.83,ESE,112,0.0,1.0,96,0.47,,,0.51,weatherlink.com 1.10,2013-08-13 05:43:00,
2013-08-13 01:58:00,68.4,68.0,29.82,ESE,110,0.0,0.0,97,0.40,,,0.51,weatherlink.com 1.10,2013-08-13 05:58:00,
2013-08-13 02:13:00,67.9,67.0,29.82,WNW,300,1.0,1.0,97,0.10,,,0.52,weatherlink.com 1.10,2013-08-13 06:13:00,
2013-08-13 02:28:00,67.5,67.0,29.85,WSW,250,0.0,5.0,97,0.61,,,1.11,weatherlink.com 1.10,2013-08-13 06:28:00,
2013-08-13 02:43:00,66.4,66.0,29.83,NW,312,0.0,2.0,97,0.68,,,1.19,weatherlink.com 1.10,2013-08-13 06:43:00,
2013-08-13 02:58:00,66.3,66.0,29.83,WSW,256,1.0,2.0,98,0.71,,,1.22,weatherlink.com 1.10,2013-08-13 06:58:00,
2013-08-13 03:13:00,66.2,66.0,29.83,West,278,0.0,2.0,98,0.83,,,1.35,weatherlink.com 1.10,2013-08-13 07:13:00,
2013-08-13 03:28:00,66.2,66.0,29.82,SE,128,0.0,2.0,98,0.30,,,1.43,weatherlink.com 1.10,2013-08-13 07:28:00,
2013-08-13 03:43:00,65.8,65.0,29.80,SE,131,0.0,0.0,98,0.30,,,1.49,weatherlink.com 1.10,2013-08-13 07:43:00,
2013-08-13 03:58:00,65.5,65.0,29.85,WNW,295,2.0,4.0,98,0.30,,,1.53,weatherlink.com 1.10,2013-08-13 07:58:00,
2013-08-13 04:14:00,65.2,65.0,29.83,WSW,243,1.0,2.0,98,0.32,,,1.67,weatherlink.com 1.10,2013-08-13 08:14:00,
2013-08-13 04:29:00,65.0,65.0,29.82,SW,229,0.0,2.0,98,0.26,,,1.70,weatherlink.com 1.10,2013-08-13 08:29:00,
2013-08-13 04:44:00,64.9,64.0,29.82,SW,236,0.0,1.0,98,0.25,,,1.74,weatherlink.com 1.10,2013-08-13 08:44:00,
2013-08-13 04:59:00,64.8,64.0,29.82,SW,236,0.0,0.0,98,0.25,,,1.79,weatherlink.com 1.10,2013-08-13 08:59:00,
2013-08-13 05:14:00,64.7,64.0,29.81,South,190,0.0,1.0,98,0.15,,,1.82,weatherlink.com 1.10,2013-08-13 09:14:00,
2013-08-13 05:29:00,64.7,64.0,29.81,SW,226,0.0,1.0,98,0.14,,,1.85,weatherlink.com 1.10,2013-08-13 09:29:00,
2013-08-13 05:44:00,64.7,64.0,29.80,SW,226,0.0,0.0,98,0.17,,,1.91,weatherlink.com 1.10,2013-08-13 09:44:00,
2013-08-13 05:59:00,64.7,64.0,29.81,NW,318,0.0,2.0,98,0.17,,,1.96,weatherlink.com 1.10,2013-08-13 09:59:00,
2013-08-13 06:14:00,64.6,64.0,29.83,East,79,0.0,2.0,98,0.15,,,1.97,weatherlink.com 1.10,2013-08-13 10:14:00,
2013-08-13 06:29:00,64.6,64.0,29.82,West,272,1.0,2.0,98,0.13,,,1.98,weatherlink.com 1.10,2013-08-13 10:29:00,
2013-08-13 06:44:00,64.5,64.0,29.82,NNE,18,0.0,1.0,98,0.09,,,2.00,weatherlink.com 1.10,2013-08-13 10:44:00,
2013-08-13 06:59:00,64.4,64.0,29.82,NNE,22,0.0,2.0,98,0.05,,,2.01,weatherlink.com 1.10,2013-08-13 10:59:00,
2013-08-13 07:14:00,64.5,64.0,29.82,NNW,333,0.0,2.0,99,0.04,,,2.01,weatherlink.com 1.10,2013-08-13 11:14:00,
2013-08-13 07:29:00,64.4,64.0,29.82,NW,322,1.0,3.0,99,0.03,,,2.02,weatherlink.com 1.10,2013-08-13 11:29:00,
2013-08-13 07:44:00,64.6,64.0,29.82,NNE,20,0.0,2.0,99,0.02,,,2.02,weatherlink.com 1.10,2013-08-13 11:44:00,
2013-08-13 07:59:00,64.6,64.0,29.82,North,357,1.0,3.0,99,0.01,,,2.02,weatherlink.com 1.10,2013-08-13 11:59:00,
2013-08-13 08:14:00,64.8,65.0,29.82,North,349,0.0,1.0,99,0.01,,,2.02,weatherlink.com 1.10,2013-08-13 12:14:00,
2013-08-13 08:29:00,65.0,65.0,29.82,ESE,111,2.0,2.0,99,0.00,,,2.02,weatherlink.com 1.10,2013-08-13 12:29:00,
2013-08-13 08:44:00,65.1,65.0,29.82,NNW,336,0.0,1.0,99,0.00,,,2.02,weatherlink.com 1.10,2013-08-13 12:44:00,
2013-08-13 08:59:00,65.3,65.0,29.82,East,97,1.0,2.0,99,0.00,,,2.02,weatherlink.com 1.10,2013-08-13 12:59:00,
2013-08-13 09:14:00,65.6,65.0,29.82,NNW,335,0.0,1.0,99,0.00,,,2.02,weatherlink.com 1.10,2013-08-13 13:14:00,
2013-08-13 09:29:00,65.9,66.0,29.83,SW,222,1.0,3.0,99,0.00,,,2.02,weatherlink.com 1.10,2013-08-13 13:29:00,
2013-08-13 09:44:00,66.2,66.0,29.83,West,270,1.0,1.0,99,0.00,,,2.02,weatherlink.com 1.10,2013-08-13 13:44:00,
2013-08-13 09:59:00,66.6,66.0,29.83,SW,221,0.0,2.0,99,0.00,,,2.02,weatherlink.com 1.10,2013-08-13 13:59:00,
2013-08-13 10:14:00,67.2,67.0,29.82,SSW,207,1.0,2.0,99,0.00,,,2.02,weatherlink.com 1.10,2013-08-13 14:14:00,
2013-08-13 10:29:00,68.1,68.0,29.83,NW,309,0.0,1.0,99,0.00,,,2.02,weatherlink.com 1.10,2013-08-13 14:29:00,
2013-08-13 10:44:00,68.6,68.0,29.84,West,263,0.0,1.0,98,0.00,,,2.02,weatherlink.com 1.10,2013-08-13 14:44:00,
2013-08-13 10:59:00,68.8,68.0,29.84,West,263,0.0,1.0,98,0.00,,,2.02,weatherlink.com 1.10,2013-08-13 14:59:00,
2013-08-13 11:14:00,69.2,69.0,29.84,WNW,285,0.0,1.0,98,0.00,,,2.02,weatherlink.com 1.10,2013-08-13 15:14:00,
2013-08-13 11:29:00,69.8,69.0,29.84,WNW,287,0.0,1.0,97,0.00,,,2.02,weatherlink.com 1.10,2013-08-13 15:29:00,
2013-08-13 11:44:00,69.9,69.0,29.84,West,271,0.0,3.0,96,0.00,,,2.02,weatherlink.com 1.10,2013-08-13 15:44:00,
2013-08-13 11:59:00,70.9,70.0,29.84,ESE,121,1.0,3.0,97,0.00,,,2.02,weatherlink.com 1.10,2013-08-13 15:59:00,
2013-08-13 12:14:00,72.5,71.0,29.83,West,278,2.0,3.0,94,0.00,,,2.02,weatherlink.com 1.10,2013-08-13 16:14:00,
2013-08-13 12:29:00,73.5,71.0,29.82,SW,219,2.0,6.0,90,0.00,,,2.02,weatherlink.com 1.10,2013-08-13 16:29:00,
2013-08-13 12:44:00,73.4,70.0,29.82,SW,232,1.0,2.0,90,0.00,,,2.02,weatherlink.com 1.10,2013-08-13 16:44:00,
2013-08-13 12:59:00,74.0,70.0,29.81,WSW,250,1.0,6.0,88,0.00,,,2.02,weatherlink.com 1.10,2013-08-13 16:59:00,
2013-08-13 13:14:00,74.9,70.0,29.81,NW,318,0.0,3.0,85,0.00,,,2.02,weatherlink.com 1.10,2013-08-13 17:14:00,
2013-08-13 13:29:00,75.8,71.0,29.81,NW,325,0.0,2.0,84,0.00,,,2.02,weatherlink.com 1.10,2013-08-13 17:29:00,
2013-08-13 13:44:00,76.0,70.0,29.80,SW,228,1.0,2.0,82,0.00,,,2.02,weatherlink.com 1.10,2013-08-13 17:44:00,
2013-08-13 13:59:00,76.6,70.0,29.80,West,269,0.0,2.0,79,0.00,,,2.02,weatherlink.com 1.10,2013-08-13 17:59:00,
2013-08-13 14:14:00,76.6,71.0,29.80,North,351,1.0,1.0,82,0.00,,,2.02,weatherlink.com 1.10,2013-08-13 18:14:00,
2013-08-13 14:29:00,73.4,70.0,29.80,WSW,239,0.0,3.0,88,0.06,,,2.08,weatherlink.com 1.10,2013-08-13 18:29:00,
2013-08-13 14:44:00,72.5,70.0,29.80,WSW,257,0.0,1.0,92,0.06,,,2.08,weatherlink.com 1.10,2013-08-13 18:44:00,
2013-08-13 14:59:00,72.8,70.0,29.80,ENE,70,0.0,1.0,91,0.06,,,2.08,weatherlink.com 1.10,2013-08-13 18:59:00,
2013-08-13 15:14:00,73.9,71.0,29.79,North,351,0.0,3.0,91,0.06,,,2.08,weatherlink.com 1.10,2013-08-13 19:14:00,
2013-08-13 15:29:00,74.6,70.0,29.79,West,271,1.0,3.0,86,0.00,,,2.08,weatherlink.com 1.10,2013-08-13 19:29:00,
2013-08-13 15:44:00,75.0,71.0,29.79,WSW,243,1.0,3.0,86,0.00,,,2.08,weatherlink.com 1.10,2013-08-13 19:44:00,
2013-08-13 15:59:00,75.6,71.0,29.79,West,266,1.0,2.0,84,0.00,,,2.08,weatherlink.com 1.10,2013-08-13 19:59:00,
2013-08-13 16:14:00,75.4,71.0,29.80,WSW,250,0.0,2.0,85,0.00,,,2.08,weatherlink.com 1.10,2013-08-13 20:14:00,
2013-08-13 16:29:00,75.5,71.0,29.80,WSW,250,1.0,1.0,86,0.00,,,2.08,weatherlink.com 1.10,2013-08-13 20:29:00,
2013-08-13 16:44:00,76.1,70.0,29.80,WSW,257,0.0,1.0,80,0.00,,,2.08,weatherlink.com 1.10,2013-08-13 20:44:00,
2013-08-13 16:59:00,76.8,69.0,29.80,NNW,328,0.0,1.0,78,0.00,,,2.08,weatherlink.com 1.10,2013-08-13 20:59:00,
2013-08-13 17:14:00,76.6,69.0,29.80,WNW,291,0.0,1.0,78,0.00,,,2.08,weatherlink.com 1.10,2013-08-13 21:14:00,
2013-08-13 17:29:00,76.4,69.0,29.80,WNW,285,0.0,3.0,78,0.00,,,2.08,weatherlink.com 1.10,2013-08-13 21:29:00,
2013-08-13 17:44:00,75.9,68.0,29.80,WSW,240,1.0,2.0,77,0.00,,,2.08,weatherlink.com 1.10,2013-08-13 21:44:00,
2013-08-13 17:59:00,74.4,67.0,29.81,East,92,2.0,3.0,78,0.00,,,2.08,weatherlink.com 1.10,2013-08-13 21:59:00,
2013-08-13 18:14:00,73.9,67.0,29.81,ENE,73,0.0,1.0,79,0.00,,,2.08,weatherlink.com 1.10,2013-08-13 22:14:00,
2013-08-13 18:29:00,73.9,67.0,29.81,West,266,0.0,1.0,80,0.00,,,2.08,weatherlink.com 1.10,2013-08-13 22:29:00,
2013-08-13 18:44:00,73.5,67.0,29.82,East,84,0.0,3.0,80,0.00,,,2.08,weatherlink.com 1.10,2013-08-13 22:44:00,
2013-08-13 18:59:00,72.8,67.0,29.82,South,188,0.0,2.0,81,0.00,,,2.08,weatherlink.com 1.10,2013-08-13 22:59:00,
2013-08-13 19:14:00,72.2,67.0,29.82,South,188,0.0,0.0,83,0.00,,,2.08,weatherlink.com 1.10,2013-08-13 23:14:00,
2013-08-13 19:29:00,71.5,66.0,29.83,South,181,0.0,1.0,83,0.00,,,2.08,weatherlink.com 1.10,2013-08-13 23:29:00,
2013-08-13 19:45:00,70.9,66.0,29.83,ESE,123,0.0,1.0,84,0.00,,,2.08,weatherlink.com 1.10,2013-08-13 23:45:00,
2013-08-13 19:59:00,70.3,65.0,29.84,SW,232,0.0,1.0,83,0.00,,,2.08,weatherlink.com 1.10,2013-08-13 23:59:00,
2013-08-13 20:15:00,69.7,65.0,29.84,SW,231,0.0,0.0,84,0.00,,,2.08,weatherlink.com 1.10,2013-08-14 00:15:00,
2013-08-13 20:30:00,68.9,65.0,29.84,SW,232,0.0,0.0,86,0.00,,,2.08,weatherlink.com 1.10,2013-08-14 00:30:00,
2013-08-13 20:45:00,68.2,64.0,29.85,SW,232,0.0,0.0,87,0.00,,,2.08,weatherlink.com 1.10,2013-08-14 00:45:00,
2013-08-13 21:00:00,67.9,63.0,29.86,NNW,333,0.0,5.0,84,0.00,,,2.08,weatherlink.com 1.10,2013-08-14 01:00:00,
2013-08-13 21:15:00,68.0,63.0,29.86,WNW,290,0.0,3.0,83,0.00,,,2.08,weatherlink.com 1.10,2013-08-14 01:15:00,
2013-08-13 21:30:00,67.5,62.0,29.88,NW,307,0.0,2.0,83,0.00,,,2.08,weatherlink.com 1.10,2013-08-14 01:30:00,
2013-08-13 21:45:00,66.9,61.0,29.89,WNW,284,0.0,3.0,82,0.00,,,2.08,weatherlink.com 1.10,2013-08-14 01:45:00,
2013-08-13 22:00:00,66.6,62.0,29.90,South,190,0.0,1.0,84,0.00,,,2.08,weatherlink.com 1.10,2013-08-14 02:00:00,
2013-08-13 22:15:00,66.2,61.0,29.90,SSE,155,1.0,1.0,84,0.00,,,2.08,weatherlink.com 1.10,2013-08-14 02:15:00,
2013-08-13 22:30:00,65.8,61.0,29.91,South,176,0.0,2.0,84,0.00,,,2.08,weatherlink.com 1.10,2013-08-14 02:30:00,
2013-08-13 22:45:00,65.4,60.0,29.91,NE,54,0.0,1.0,83,0.00,,,2.08,weatherlink.com 1.10,2013-08-14 02:45:00,
2013-08-13 23:00:00,64.9,60.0,29.92,West,269,0.0,1.0,84,0.00,,,2.08,weatherlink.com 1.10,2013-08-14 03:00:00,
2013-08-13 23:15:00,64.3,59.0,29.92,West,269,0.0,1.0,82,0.00,,,2.08,weatherlink.com 1.10,2013-08-14 03:15:00,
2013-08-13 23:30:00,63.8,59.0,29.93,WNW,298,2.0,2.0,83,0.00,,,2.08,weatherlink.com 1.10,2013-08-14 03:30:00,
2013-08-13 23:45:00,63.2,57.0,29.93,NW,311,0.0,2.0,81,0.00,,,2.08,weatherlink.com 1.10,2013-08-14 03:45:00,